Time;durP1;ratioP1;P1;durP2;ratioP2;P2;SDS_P1;SDS_P2;PMS_P1;PMS_P2;Temp;Humidity;BMP_temperature;BMP_pressure;BME280_temperature;BME280_humidity;BME280_pressure;Samples;Min_cycle;Max_cycle;Signal;HPM_P1;HPM_P2
2024/03/05 00:00:26;;;;;;;26.90;25.30;;;21.10;55.60;;;;;;4974471;28;20479;-66
2024/03/05 00:02:53;;;;;;;27.13;25.57;;;21.00;55.60;;;;;;4974006;28;21083;-65
2024/03/05 00:05:20;;;;;;;26.50;24.90;;;21.00;55.60;;;;;;4974571;28;20518;-66
2024/03/05 00:07:48;;;;;;;26.20;24.70;;;21.00;55.60;;;;;;4975536;28;20503;-67
2024/03/05 00:10:15;;;;;;;26.50;24.90;;;21.00;55.70;;;;;;4956907;28;20432;-66
2024/03/05 00:12:42;;;;;;;26.30;24.90;;;21.00;55.70;;;;;;4955810;28;20445;-62
2024/03/05 00:15:09;;;;;;;26.03;24.63;;;21.00;55.70;;;;;;4954547;28;20539;-65
2024/03/05 00:17:37;;;;;;;26.27;24.87;;;21.00;55.70;;;;;;4954727;28;20481;-65
2024/03/05 00:20:10;;;;;;;26.00;24.70;;;20.90;55.60;;;;;;4972273;28;20447;-65
2024/03/05 00:22:36;;;;;;;26.07;24.70;;;20.90;55.60;;;;;;4973931;28;20504;-65
2024/03/05 00:25:04;;;;;;;26.00;24.67;;;21.00;55.70;;;;;;4974259;28;20471;-65
2024/03/05 00:27:30;;;;;;;26.47;25.07;;;20.90;55.60;;;;;;4974135;28;20478;-65
2024/03/05 00:29:57;;;;;;;26.07;24.67;;;20.90;55.60;;;;;;4958903;28;20451;-65
2024/03/05 00:32:24;;;;;;;28.23;26.73;;;20.90;55.70;;;;;;4955880;28;20949;-67
2024/03/05 00:34:52;;;;;;;27.03;25.33;;;20.90;55.70;;;;;;4956694;28;20553;-66
2024/03/05 00:37:19;;;;;;;26.90;25.40;;;20.90;55.70;;;;;;4962388;28;20479;-67
2024/03/05 00:39:46;;;;;;;26.70;25.20;;;20.90;55.70;;;;;;4975384;28;20443;-67
2024/03/05 00:42:13;;;;;;;26.30;24.90;;;20.90;55.70;;;;;;4975204;28;20443;-66
2024/03/05 00:44:40;;;;;;;27.40;25.93;;;20.90;55.70;;;;;;4975602;28;20495;-67
2024/03/05 00:47:07;;;;;;;26.93;25.53;;;20.90;55.70;;;;;;4970810;28;20962;-66
2024/03/05 00:49:34;;;;;;;26.53;25.10;;;20.90;55.80;;;;;;4956302;28;20459;-67
2024/03/05 00:52:03;;;;;;;27.70;26.17;;;20.80;55.80;;;;;;4956584;28;20448;-65
2024/03/05 00:54:30;;;;;;;26.97;25.23;;;20.80;55.80;;;;;;4956284;28;20560;-67
2024/03/05 00:56:56;;;;;;;26.83;25.37;;;20.80;55.80;;;;;;4958742;28;20482;-66
2024/03/05 00:59:23;;;;;;;27.30;25.90;;;20.80;55.70;;;;;;4975529;28;20822;-66
2024/03/05 01:01:50;;;;;;;26.97;25.37;;;20.80;55.80;;;;;;4974680;28;20444;-66
2024/03/05 01:04:17;;;;;;;26.07;24.67;;;20.80;55.70;;;;;;4975225;28;21012;-64
2024/03/05 01:06:44;;;;;;;25.57;24.30;;;20.80;55.80;;;;;;4973449;28;20495;-67
2024/03/05 01:09:19;;;;;;;31.50;29.90;;;20.80;55.80;;;;;;4955660;28;20507;-66
2024/03/05 01:11:46;;;;;;;27.80;26.30;;;20.80;55.80;;;;;;4956291;28;20443;-65
2024/03/05 01:14:14;;;;;;;26.17;24.77;;;20.80;55.80;;;;;;4955570;28;20536;-65
2024/03/05 01:16:40;;;;;;;28.43;26.93;;;20.80;55.80;;;;;;4953843;28;20488;-65
2024/03/05 01:19:08;;;;;;;26.30;24.90;;;20.80;55.80;;;;;;4973125;28;20945;-65
2024/03/05 01:21:35;;;;;;;26.17;24.67;;;20.80;55.80;;;;;;4972593;28;20448;-65
2024/03/05 01:24:02;;;;;;;25.20;23.80;;;20.80;55.90;;;;;;4972964;28;20472;-63
2024/03/05 01:26:30;;;;;;;26.50;25.17;;;20.70;56.40;;;;;;4973088;28;20444;-63
2024/03/05 01:28:57;;;;;;;26.33;24.90;;;20.80;55.90;;;;;;4954850;28;20441;-63
2024/03/05 01:31:26;;;;;;;26.70;25.20;;;20.70;55.80;;;;;;4953490;28;20440;-68
2024/03/05 01:33:53;;;;;;;25.70;24.40;;;20.70;55.80;;;;;;4953616;28;20919;-63
2024/03/05 01:36:19;;;;;;;26.63;25.20;;;20.70;55.80;;;;;;4953806;28;20486;-64
2024/03/05 01:38:46;;;;;;;28.33;26.73;;;20.70;55.80;;;;;;4968828;28;21004;-63
2024/03/05 01:41:14;;;;;;;25.67;24.37;;;20.70;55.80;;;;;;4972512;28;20456;-62
2024/03/05 01:43:42;;;;;;;25.47;24.20;;;20.70;55.90;;;;;;4972634;28;20440;-63
2024/03/05 01:46:10;;;;;;;26.53;25.13;;;20.70;55.90;;;;;;4973298;28;20439;-63
2024/03/05 01:48:38;;;;;;;26.23;24.83;;;20.70;55.90;;;;;;4958049;28;20448;-63
2024/03/05 01:51:05;;;;;;;26.50;24.90;;;20.70;55.90;;;;;;4953522;28;20445;-63
2024/03/05 01:53:32;;;;;;;26.67;25.27;;;20.70;55.80;;;;;;4953335;28;20456;-64
2024/03/05 01:55:59;;;;;;;25.20;23.90;;;20.70;55.90;;;;;;4953751;28;20899;-62
2024/03/05 01:58:27;;;;;;;27.47;25.73;;;20.70;55.90;;;;;;4954481;28;20559;-63
2024/03/05 02:00:57;;;;;;;26.00;24.60;;;20.70;55.90;;;;;;4953327;28;20452;-64
2024/03/05 02:03:25;;;;;;;25.90;24.40;;;20.60;55.80;;;;;;4953368;28;20515;-63
2024/03/05 02:05:54;;;;;;;26.10;24.70;;;20.60;55.80;;;;;;4958893;28;20859;-63
2024/03/05 02:08:22;;;;;;;26.40;25.00;;;20.60;55.80;;;;;;4973116;28;20459;-64
2024/03/05 02:10:49;;;;;;;27.43;25.93;;;20.60;55.80;;;;;;4974478;28;20843;-65
2024/03/05 02:13:15;;;;;;;27.87;26.37;;;20.60;55.80;;;;;;4976084;28;20444;-64
2024/03/05 02:15:42;;;;;;;27.10;25.70;;;20.60;55.80;;;;;;4971615;28;20476;-64
2024/03/05 02:18:12;;;;;;;26.40;25.00;;;20.60;55.90;;;;;;4956866;28;20519;-64
2024/03/05 02:20:39;;;;;;;26.23;24.63;;;20.60;55.90;;;;;;4956812;28;20479;-65
2024/03/05 02:23:07;;;;;;;26.97;25.47;;;20.60;55.90;;;;;;4956485;28;20463;-64
2024/03/05 02:25:34;;;;;;;27.03;25.40;;;20.60;55.90;;;;;;4959214;28;20474;-64
2024/03/05 02:28:03;;;;;;;25.90;24.50;;;20.60;56.00;;;;;;4975971;28;20455;-64
2024/03/05 02:30:30;;;;;;;27.90;26.30;;;20.60;56.00;;;;;;4976073;28;20918;-64
2024/03/05 02:32:58;;;;;;;25.77;24.47;;;20.60;56.00;;;;;;4975762;28;20447;-64
2024/03/05 02:35:25;;;;;;;25.40;24.10;;;20.60;56.00;;;;;;4974307;28;20499;-64
2024/03/05 02:37:52;;;;;;;27.73;26.37;;;20.60;56.00;;;;;;4956352;28;20511;-64
2024/03/05 02:40:20;;;;;;;28.77;27.37;;;20.60;56.00;;;;;;4956590;28;20445;-64
2024/03/05 02:42:46;;;;;;;28.50;27.00;;;20.60;56.00;;;;;;4956040;28;20448;-64
2024/03/05 02:45:15;;;;;;;27.77;26.37;;;20.60;56.00;;;;;;4957329;28;20468;-64
2024/03/05 02:47:42;;;;;;;26.90;25.20;;;20.60;56.00;;;;;;4956459;28;20794;-64
2024/03/05 02:50:10;;;;;;;25.77;24.33;;;20.60;56.00;;;;;;4956318;28;20508;-64
2024/03/05 02:52:38;;;;;;;26.30;24.97;;;20.50;55.90;;;;;;4955853;28;20818;-65
2024/03/05 02:55:09;;;;;;;26.43;24.97;;;20.60;56.00;;;;;;4969600;28;20561;-65
2024/03/05 02:57:37;;;;;;;26.80;25.20;;;20.50;55.90;;;;;;4975552;28;20488;-65
2024/03/05 03:00:09;;;;;;;25.53;24.23;;;20.60;56.00;;;;;;4975747;28;20444;-64
2024/03/05 03:02:36;;;;;;;27.80;26.07;;;20.50;55.90;;;;;;4975049;28;20479;-65
2024/03/05 03:05:05;;;;;;;26.37;24.87;;;20.50;55.90;;;;;;4962081;28;20464;-65
2024/03/05 03:07:32;;;;;;;26.80;25.30;;;20.50;55.90;;;;;;4956076;28;20445;-65
2024/03/05 03:09:59;;;;;;;25.77;24.37;;;20.60;55.90;;;;;;4956362;28;20461;-65
2024/03/05 03:12:26;;;;;;;27.80;26.10;;;20.50;55.90;;;;;;4955762;28;20448;-65
2024/03/05 03:14:54;;;;;;;27.43;25.80;;;20.50;55.90;;;;;;4966711;28;20468;-65
2024/03/05 03:17:20;;;;;;;26.10;24.63;;;20.50;55.90;;;;;;4975155;28;20487;-65
2024/03/05 03:19:47;;;;;;;27.17;25.57;;;20.50;55.90;;;;;;4974998;28;20964;-65
2024/03/05 03:22:14;;;;;;;26.70;25.20;;;20.50;55.90;;;;;;4974716;28;21008;-65
2024/03/05 03:24:42;;;;;;;28.23;26.83;;;20.50;55.80;;;;;;4965132;28;20523;-65
2024/03/05 03:27:09;;;;;;;26.60;25.20;;;20.50;55.90;;;;;;4955659;28;20455;-65
2024/03/05 03:29:36;;;;;;;27.10;25.50;;;20.50;55.90;;;;;;4955570;28;21057;-65
2024/03/05 03:32:05;;;;;;;27.20;25.47;;;20.50;55.90;;;;;;4955173;28;20449;-65
2024/03/05 03:34:32;;;;;;;32.80;30.47;;;20.50;55.90;;;;;;4963090;28;20495;-65
2024/03/05 03:36:59;;;;;;;28.17;26.27;;;20.50;55.90;;;;;;4974724;28;20511;-65
2024/03/05 03:39:26;;;;;;;26.40;25.00;;;20.50;55.90;;;;;;4974817;28;20444;-65
2024/03/05 03:41:54;;;;;;;26.23;24.83;;;20.50;55.90;;;;;;4974195;28;20447;-65
2024/03/05 03:44:22;;;;;;;27.20;25.60;;;20.50;56.40;;;;;;4967855;28;20471;-65
2024/03/05 03:46:49;;;;;;;27.80;26.40;;;20.50;55.90;;;;;;4955385;28;20447;-64
2024/03/05 03:49:23;;;;;;;26.67;25.27;;;20.50;55.90;;;;;;4955157;28;20444;-64
2024/03/05 03:51:50;;;;;;;26.57;25.10;;;20.50;55.90;;;;;;4954802;28;20441;-65
2024/03/05 03:54:17;;;;;;;26.30;24.80;;;20.50;55.90;;;;;;4960184;28;20842;-65
2024/03/05 03:56:44;;;;;;;26.17;24.77;;;20.50;55.90;;;;;;4974452;28;20444;-64
2024/03/05 03:59:11;;;;;;;26.63;25.07;;;20.50;55.90;;;;;;4974573;28;20975;-65
2024/03/05 04:01:38;;;;;;;27.47;26.07;;;20.50;55.90;;;;;;4974007;28;20455;-65
2024/03/05 04:04:04;;;;;;;27.47;25.97;;;20.50;55.90;;;;;;4970647;28;20457;-65
2024/03/05 04:06:33;;;;;;;27.13;25.63;;;20.50;55.90;;;;;;4955171;28;20449;-65
2024/03/05 04:09:00;;;;;;;27.47;25.80;;;20.50;55.90;;;;;;4954902;28;20930;-65
2024/03/05 04:11:27;;;;;;;26.70;25.23;;;20.40;55.90;;;;;;4954486;28;20507;-64
2024/03/05 04:13:54;;;;;;;26.40;24.97;;;20.40;55.80;;;;;;4969710;28;20447;-65
2024/03/05 04:16:21;;;;;;;27.33;25.70;;;20.40;55.90;;;;;;4974153;28;20502;-64
2024/03/05 04:18:48;;;;;;;27.73;26.03;;;20.50;56.00;;;;;;4973891;28;20483;-64
2024/03/05 04:21:15;;;;;;;26.33;24.73;;;20.40;55.90;;;;;;4974389;28;20895;-65
2024/03/05 04:23:43;;;;;;;27.03;25.63;;;20.40;56.00;;;;;;4960641;28;20453;-65
2024/03/05 04:26:13;;;;;;;27.30;25.73;;;20.40;56.00;;;;;;4954641;28;20441;-65
2024/03/05 04:28:48;;;;;;;28.57;27.07;;;20.40;56.00;;;;;;4954492;28;20455;-65
2024/03/05 04:31:16;;;;;;;26.93;25.50;;;20.40;55.90;;;;;;4954684;28;21005;-65
2024/03/05 04:33:43;;;;;;;26.80;25.40;;;20.40;56.10;;;;;;4966414;28;20451;-65
2024/03/05 04:36:14;;;;;;;26.63;25.23;;;20.40;56.10;;;;;;4973913;28;20455;-65
2024/03/05 04:38:43;;;;;;;27.83;26.20;;;20.40;56.20;;;;;;4973736;28;20873;-65
2024/03/05 04:41:10;;;;;;;27.20;25.47;;;20.40;56.20;;;;;;4974010;28;20451;-64
2024/03/05 04:43:38;;;;;;;27.27;25.60;;;20.40;56.20;;;;;;4961230;28;20448;-66
2024/03/05 04:46:06;;;;;;;27.77;26.10;;;20.40;56.20;;;;;;4954540;28;20872;-65
2024/03/05 04:48:33;;;;;;;27.80;26.20;;;20.40;56.20;;;;;;4954304;28;20441;-65
2024/03/05 04:51:01;;;;;;;27.50;25.90;;;20.40;56.20;;;;;;4954399;28;20449;-65
2024/03/05 04:53:28;;;;;;;27.00;25.23;;;20.40;56.20;;;;;;4964119;28;20452;-64
2024/03/05 04:55:56;;;;;;;26.90;25.30;;;20.40;56.20;;;;;;4973435;28;20463;-65
2024/03/05 04:58:23;;;;;;;27.10;25.40;;;20.40;56.20;;;;;;4973439;28;20491;-65
2024/03/05 05:00:49;;;;;;;28.70;27.13;;;20.40;56.20;;;;;;4971371;28;20862;-65
2024/03/05 05:03:16;;;;;;;27.47;26.07;;;20.40;56.20;;;;;;4953963;28;20453;-65
2024/03/05 05:05:43;;;;;;;29.40;27.80;;;20.40;56.20;;;;;;4953948;28;20476;-65
2024/03/05 05:08:10;;;;;;;28.57;27.07;;;20.40;56.20;;;;;;4954117;28;20463;-65
2024/03/05 05:10:37;;;;;;;29.30;27.23;;;20.40;56.20;;;;;;4953956;28;20448;-65
2024/03/05 05:13:05;;;;;;;28.00;26.50;;;20.40;56.30;;;;;;4953565;28;20957;-65
2024/03/05 05:15:33;;;;;;;29.27;27.70;;;20.40;56.30;;;;;;4953991;28;20488;-65
2024/03/05 05:18:00;;;;;;;28.03;26.53;;;20.40;56.30;;;;;;4953770;28;20495;-65
2024/03/05 05:20:27;;;;;;;27.33;25.90;;;20.40;56.30;;;;;;4954147;28;20449;-65
2024/03/05 05:22:54;;;;;;;28.20;26.70;;;20.40;56.30;;;;;;4970862;28;20470;-64
2024/03/05 05:25:21;;;;;;;29.00;27.40;;;20.40;56.30;;;;;;4973303;28;20495;-64
2024/03/05 05:27:49;;;;;;;28.27;26.87;;;20.40;56.30;;;;;;4973378;28;20530;-65
2024/03/05 05:30:19;;;;;;;27.57;26.13;;;20.40;56.30;;;;;;4973160;28;20447;-65
2024/03/05 05:32:47;;;;;;;27.20;25.83;;;20.40;56.20;;;;;;4956184;28;21085;-65
2024/03/05 05:35:14;;;;;;;27.43;25.93;;;20.40;56.30;;;;;;4953719;28;20953;-65
2024/03/05 05:37:42;;;;;;;27.37;25.87;;;20.40;56.40;;;;;;4953550;28;20497;-65
2024/03/05 05:40:11;;;;;;;29.20;27.70;;;20.40;56.50;;;;;;4953805;28;20452;-65
2024/03/05 05:42:38;;;;;;;29.43;27.90;;;20.40;56.40;;;;;;4954507;28;20504;-64
2024/03/05 05:45:08;;;;;;;29.17;27.63;;;20.40;56.40;;;;;;4954381;28;20465;-65
2024/03/05 05:47:38;;;;;;;29.23;27.43;;;20.40;56.40;;;;;;4957530;28;20802;-65
2024/03/05 05:50:17;;;;;;;28.57;27.00;;;20.40;56.40;;;;;;4957376;28;20459;-65
2024/03/05 05:52:44;;;;;;;28.23;26.73;;;20.40;56.40;;;;;;4971762;28;20526;-65
2024/03/05 05:55:13;;;;;;;28.60;27.00;;;20.40;56.30;;;;;;4976785;28;20468;-65
2024/03/05 05:57:40;;;;;;;28.50;27.00;;;20.40;56.30;;;;;;4976466;28;20479;-65
2024/03/05 06:00:12;;;;;;;31.47;29.27;;;20.40;56.40;;;;;;4976723;28;20447;-65
2024/03/05 06:02:40;;;;;;;28.83;27.20;;;20.40;57.20;;;;;;4962337;28;20519;-64
2024/03/05 06:05:09;;;;;;;30.57;28.67;;;20.40;58.50;;;;;;4957197;28;20839;-65
2024/03/05 06:07:36;;;;;;;30.47;28.77;;;20.50;60.50;;;;;;4957180;28;20518;-65
2024/03/05 06:10:04;;;;;;;34.50;32.20;;;20.40;62.20;;;;;;4963247;28;21012;-65
2024/03/05 06:12:31;;;;;;;32.67;30.30;;;20.40;62.60;;;;;;4976122;28;21004;-65
2024/03/05 06:14:58;;;;;;;33.07;30.23;;;20.50;62.30;;;;;;4971705;28;20530;-64
2024/03/05 06:17:25;;;;;;;34.50;31.40;;;20.50;62.80;;;;;;4961553;28;20448;-64
2024/03/05 06:19:53;;;;;;;31.53;29.00;;;20.50;63.20;;;;;;4956874;28;20451;-63
2024/03/05 06:22:19;;;;;;;28.90;27.10;;;20.50;63.90;;;;;;4956338;28;20464;-64
2024/03/05 06:24:47;;;;;;;29.40;27.20;;;20.50;63.70;;;;;;4956633;28;20487;-64
2024/03/05 06:27:13;;;;;;;29.43;27.17;;;20.50;64.30;;;;;;4956653;28;20444;-64
2024/03/05 06:29:40;;;;;;;28.87;27.07;;;20.50;63.30;;;;;;4956503;28;20445;-63
2024/03/05 06:32:10;;;;;;;27.87;26.37;;;20.50;63.10;;;;;;4956152;28;20531;-64
2024/03/05 06:34:36;;;;;;;28.40;26.50;;;20.50;62.60;;;;;;4956544;28;20527;-64
2024/03/05 06:37:05;;;;;;;29.60;27.50;;;20.50;62.30;;;;;;4956440;28;20816;-63
2024/03/05 06:39:35;;;;;;;30.23;27.77;;;20.50;61.90;;;;;;4956343;28;20484;-61
2024/03/05 06:42:03;;;;;;;29.47;27.10;;;20.60;61.70;;;;;;4956358;28;20448;-64
2024/03/05 06:44:36;;;;;;;32.20;29.60;;;20.60;61.40;;;;;;4956319;28;20472;-63
2024/03/05 06:47:03;;;;;;;31.07;28.70;;;20.60;61.00;;;;;;4956283;28;20448;-63
2024/03/05 06:49:38;;;;;;;28.73;27.13;;;20.60;60.70;;;;;;4956129;28;20448;-64
2024/03/05 06:57:32;;;;;;;29.50;27.47;;;20.60;60.00;;;;;;4956021;28;20420;-63
2024/03/05 06:59:59;;;;;;;29.53;27.43;;;20.60;59.80;;;;;;4955944;28;20481;-63
2024/03/05 07:02:30;;;;;;;27.60;26.00;;;20.60;59.70;;;;;;4955881;28;20809;-64
2024/03/05 07:04:56;;;;;;;29.63;27.73;;;20.60;59.50;;;;;;4955931;28;20469;-63
2024/03/05 07:07:25;;;;;;;29.70;27.83;;;20.60;59.40;;;;;;4955901;28;20829;-64
2024/03/05 07:09:52;;;;;;;31.07;29.00;;;20.60;59.30;;;;;;4955688;28;20448;-63
2024/03/05 07:12:20;;;;;;;28.50;27.00;;;20.60;59.10;;;;;;4955540;28;20809;-63
2024/03/05 07:14:47;;;;;;;29.60;27.80;;;20.60;59.00;;;;;;4955783;28;20477;-64
2024/03/05 07:17:13;;;;;;;29.23;27.53;;;20.60;58.90;;;;;;4956543;28;20452;-65
2024/03/05 07:19:40;;;;;;;29.00;27.33;;;20.60;58.80;;;;;;4956168;28;20511;-64
2024/03/05 07:22:07;;;;;;;28.53;26.73;;;20.60;58.70;;;;;;4956079;28;20515;-64
2024/03/05 07:24:35;;;;;;;29.37;27.67;;;20.60;58.60;;;;;;4958430;28;20476;-65
2024/03/05 07:27:02;;;;;;;29.83;28.10;;;20.60;58.50;;;;;;4958693;28;20453;-64
2024/03/05 07:29:29;;;;;;;29.37;27.63;;;20.60;58.40;;;;;;4959461;28;20441;-64
2024/03/05 07:31:56;;;;;;;30.97;28.87;;;20.60;58.30;;;;;;4959335;28;20448;-65
2024/03/05 07:34:23;;;;;;;29.97;28.20;;;20.60;58.20;;;;;;4959343;28;20469;-64
2024/03/05 07:36:49;;;;;;;29.47;28.00;;;20.60;58.10;;;;;;4959129;28;20445;-65
2024/03/05 07:39:17;;;;;;;30.70;28.80;;;20.60;58.00;;;;;;4959164;28;20488;-65
2024/03/05 07:41:45;;;;;;;29.43;27.70;;;20.60;57.90;;;;;;4959044;28;20603;-65
2024/03/05 07:44:12;;;;;;;28.33;26.63;;;20.70;57.90;;;;;;4956032;28;20560;-64
2024/03/05 07:46:39;;;;;;;29.13;27.40;;;20.60;57.70;;;;;;4955127;28;20805;-63
2024/03/05 07:49:06;;;;;;;28.20;26.70;;;20.70;57.70;;;;;;4955093;28;20441;-64
2024/03/05 07:51:32;;;;;;;28.13;26.60;;;20.70;57.60;;;;;;4954802;28;20445;-64
2024/03/05 07:53:59;;;;;;;28.63;27.13;;;20.60;57.50;;;;;;4955080;28;20479;-64
2024/03/05 07:56:26;;;;;;;28.23;26.60;;;20.60;57.40;;;;;;4954899;28;20436;-64
2024/03/05 07:58:55;;;;;;;29.57;27.70;;;20.70;57.40;;;;;;4954909;28;20942;-64
2024/03/05 08:01:22;;;;;;;29.77;27.77;;;20.70;57.30;;;;;;4955016;28;20934;-64
2024/03/05 08:03:49;;;;;;;29.27;27.37;;;20.70;57.20;;;;;;4954565;28;20807;-64
2024/03/05 08:06:16;;;;;;;29.10;27.40;;;20.70;57.10;;;;;;4954752;28;20449;-64
2024/03/05 08:08:43;;;;;;;29.60;27.80;;;20.70;57.10;;;;;;4953978;28;20445;-64
2024/03/05 08:11:11;;;;;;;29.67;27.67;;;20.70;57.10;;;;;;4954640;28;20445;-64
2024/03/05 08:13:38;;;;;;;29.63;27.83;;;20.70;57.00;;;;;;4954182;28;20453;-64
2024/03/05 08:16:08;;;;;;;28.93;27.27;;;20.70;57.40;;;;;;4954614;28;20452;-64
2024/03/05 08:18:35;;;;;;;29.33;27.73;;;20.70;56.90;;;;;;4954537;28;20563;-64
2024/03/05 08:21:03;;;;;;;28.50;27.10;;;20.70;56.80;;;;;;4954441;28;20453;-64
2024/03/05 08:23:29;;;;;;;30.20;28.20;;;20.70;56.70;;;;;;4954123;28;20952;-64
2024/03/05 08:25:56;;;;;;;30.40;28.50;;;20.70;56.70;;;;;;4954413;28;20808;-64
2024/03/05 08:28:24;;;;;;;29.97;28.27;;;20.70;56.60;;;;;;4954437;28;20483;-63
2024/03/05 08:30:51;;;;;;;29.10;27.40;;;20.70;56.60;;;;;;4954245;28;21001;-64
2024/03/05 08:33:20;;;;;;;29.20;27.50;;;20.70;56.60;;;;;;4954104;28;20810;-63
2024/03/05 08:35:47;;;;;;;29.20;27.40;;;20.70;56.60;;;;;;4954150;28;20520;-64
2024/03/05 08:38:14;;;;;;;30.77;29.07;;;20.70;56.50;;;;;;4954065;28;20452;-64
2024/03/05 08:40:41;;;;;;;28.70;27.30;;;20.70;56.50;;;;;;4954214;28;20448;-64
2024/03/05 08:43:09;;;;;;;30.53;29.03;;;20.70;56.50;;;;;;4954103;28;20444;-64
2024/03/05 08:45:37;;;;;;;30.77;28.80;;;20.70;56.50;;;;;;4954280;28;20465;-63
2024/03/05 08:48:04;;;;;;;28.93;27.43;;;20.70;56.50;;;;;;4954145;28;20461;-63
2024/03/05 08:50:33;;;;;;;28.50;27.20;;;20.70;56.50;;;;;;4954131;28;20444;-63
2024/03/05 08:53:02;;;;;;;28.43;26.93;;;20.70;56.50;;;;;;4953961;28;20480;-63
2024/03/05 08:55:29;;;;;;;29.37;27.77;;;20.70;56.40;;;;;;4957750;28;20859;-65
2024/03/05 08:57:57;;;;;;;28.60;27.10;;;20.80;56.50;;;;;;4958319;28;20453;-65
2024/03/05 09:00:25;;;;;;;29.37;27.87;;;20.70;56.40;;;;;;4957605;28;20524;-65
2024/03/05 09:02:52;;;;;;;27.70;26.40;;;20.80;56.40;;;;;;4957484;28;20515;-65
2024/03/05 09:05:19;;;;;;;27.63;26.13;;;20.80;56.40;;;;;;4956962;28;20556;-66
2024/03/05 09:07:48;;;;;;;27.50;26.10;;;20.80;56.30;;;;;;4957736;28;20512;-63
2024/03/05 09:10:17;;;;;;;28.87;27.47;;;20.80;56.30;;;;;;4957583;28;20448;-65
2024/03/05 09:12:43;;;;;;;28.17;26.77;;;20.80;56.30;;;;;;4958050;28;20480;-64
2024/03/05 09:15:12;;;;;;;28.63;27.10;;;20.80;56.20;;;;;;4956418;28;20495;-63
2024/03/05 09:17:39;;;;;;;27.27;25.77;;;20.80;56.20;;;;;;4953795;28;20449;-63
2024/03/05 09:20:13;;;;;;;28.00;26.60;;;20.80;56.20;;;;;;4953626;28;20484;-64
2024/03/05 09:22:43;;;;;;;28.23;26.63;;;20.80;56.10;;;;;;4953401;28;21141;-63
2024/03/05 09:25:12;;;;;;;27.80;26.50;;;20.80;56.10;;;;;;4953723;28;21033;-64
2024/03/05 09:27:38;;;;;;;28.80;27.30;;;20.80;56.00;;;;;;4953768;28;20535;-64
2024/03/05 09:30:08;;;;;;;28.83;27.33;;;20.80;55.90;;;;;;4953557;28;20441;-63
2024/03/05 09:32:35;;;;;;;28.77;27.37;;;20.80;55.90;;;;;;4953156;28;20460;-61
2024/03/05 09:35:02;;;;;;;28.60;27.00;;;20.80;55.80;;;;;;4953434;28;20464;-63
2024/03/05 09:37:29;;;;;;;29.20;27.60;;;20.80;55.80;;;;;;4953409;28;20953;-63
2024/03/05 09:39:56;;;;;;;28.17;26.77;;;20.80;55.80;;;;;;4953343;28;20492;-63
2024/03/05 09:42:27;;;;;;;28.80;27.37;;;20.80;55.70;;;;;;4953100;28;20453;-63
2024/03/05 09:44:55;;;;;;;27.90;26.60;;;20.80;55.70;;;;;;4953367;28;20468;-64
2024/03/05 09:47:22;;;;;;;28.40;27.10;;;20.80;55.60;;;;;;4953471;28;20822;-63
2024/03/05 09:49:51;;;;;;;29.80;28.47;;;20.80;55.60;;;;;;4953280;28;20445;-63
2024/03/05 09:52:19;;;;;;;28.30;27.00;;;20.80;55.60;;;;;;4953392;28;20455;-63
2024/03/05 09:54:45;;;;;;;28.23;26.73;;;20.80;55.50;;;;;;4953190;28;20468;-64
2024/03/05 09:57:14;;;;;;;28.90;27.47;;;20.80;55.50;;;;;;4953348;28;20444;-63
2024/03/05 09:59:43;;;;;;;29.27;27.50;;;20.80;55.50;;;;;;4953197;28;20492;-62
2024/03/05 10:02:15;;;;;;;29.57;27.97;;;20.80;55.40;;;;;;4952842;28;20508;-63
2024/03/05 10:04:45;;;;;;;28.37;26.90;;;20.80;55.40;;;;;;4953218;28;20853;-62
2024/03/05 10:07:11;;;;;;;29.00;27.60;;;20.80;55.30;;;;;;4953192;28;20793;-63
2024/03/05 10:09:38;;;;;;;28.63;27.20;;;20.80;55.30;;;;;;4953183;28;20451;-64
2024/03/05 10:12:05;;;;;;;28.13;26.70;;;20.80;55.30;;;;;;4953098;28;20451;-64
2024/03/05 10:14:34;;;;;;;28.73;27.20;;;20.80;55.30;;;;;;4953090;28;20715;-62
2024/03/05 10:17:03;;;;;;;28.73;27.30;;;20.80;55.30;;;;;;4953057;28;20452;-64
2024/03/05 10:19:42;;;;;;;29.40;27.90;;;20.80;55.30;;;;;;4953002;28;20857;-64
2024/03/05 10:22:11;;;;;;;28.93;27.40;;;20.80;55.30;;;;;;4952939;28;20449;-64
2024/03/05 10:24:37;;;;;;;28.90;27.50;;;20.80;55.40;;;;;;4953027;28;20472;-64
2024/03/05 10:27:05;;;;;;;28.50;27.20;;;20.80;55.40;;;;;;4953149;28;20456;-64
2024/03/05 10:29:36;;;;;;;28.70;27.30;;;20.80;55.40;;;;;;4952898;28;20448;-64
2024/03/05 10:32:07;;;;;;;28.87;27.47;;;20.80;55.50;;;;;;4954889;28;20464;-64
2024/03/05 10:34:34;;;;;;;27.80;26.50;;;20.80;55.40;;;;;;4956368;28;20555;-63
2024/03/05 10:37:05;;;;;;;28.47;27.07;;;20.80;55.40;;;;;;4956589;28;20470;-64
2024/03/05 10:39:31;;;;;;;29.00;27.47;;;20.80;55.40;;;;;;4956299;28;21096;-64
2024/03/05 10:42:01;;;;;;;28.17;26.77;;;20.80;55.40;;;;;;4955962;28;20939;-63
2024/03/05 10:44:29;;;;;;;27.80;26.40;;;20.80;55.40;;;;;;4956370;28;20475;-64
2024/03/05 10:46:57;;;;;;;27.43;26.23;;;20.80;55.30;;;;;;4956495;28;20455;-64
2024/03/05 10:49:26;;;;;;;27.20;25.90;;;20.90;55.40;;;;;;4956388;28;20459;-63
2024/03/05 10:51:55;;;;;;;28.53;27.13;;;20.80;55.20;;;;;;4955774;28;20445;-64
2024/03/05 10:54:23;;;;;;;27.80;26.50;;;20.80;55.20;;;;;;4956057;28;20472;-64
2024/03/05 10:56:52;;;;;;;27.80;26.47;;;20.80;55.20;;;;;;4955971;28;20479;-64
2024/03/05 10:59:30;;;;;;;30.07;28.47;;;20.90;55.20;;;;;;4955865;28;20543;-64
2024/03/05 11:01:59;;;;;;;27.73;26.47;;;20.80;55.10;;;;;;4955899;28;20507;-63
2024/03/05 11:04:31;;;;;;;27.93;26.53;;;20.90;55.20;;;;;;4956015;28;20500;-64
2024/03/05 11:06:59;;;;;;;30.60;29.10;;;20.90;55.10;;;;;;4955971;28;20456;-64
2024/03/05 11:09:27;;;;;;;29.10;27.70;;;20.90;55.10;;;;;;4955849;28;20445;-64
2024/03/05 11:12:00;;;;;;;30.27;28.80;;;20.90;55.10;;;;;;4955521;28;20459;-64
2024/03/05 11:14:28;;;;;;;27.97;26.67;;;20.80;55.00;;;;;;4958696;28;20854;-64
2024/03/05 11:17:04;;;;;;;28.63;27.33;;;20.90;55.00;;;;;;4958714;28;20440;-65
2024/03/05 11:19:33;;;;;;;29.70;28.30;;;20.80;54.90;;;;;;4959378;28;20480;-65
2024/03/05 11:22:00;;;;;;;29.07;27.70;;;20.80;54.90;;;;;;4957701;28;20535;-65
2024/03/05 11:24:27;;;;;;;28.87;27.43;;;20.80;54.90;;;;;;4956529;28;20469;-64
2024/03/05 11:27:10;;;;;;;27.70;26.30;;;20.90;54.90;;;;;;4956399;28;20447;-64
2024/03/05 11:29:38;;;;;;;28.53;27.23;;;20.90;54.90;;;;;;4956370;28;20445;-64
2024/03/05 11:32:05;;;;;;;27.23;25.83;;;20.90;54.80;;;;;;4958344;28;20449;-65
2024/03/05 11:34:35;;;;;;;27.47;26.27;;;20.90;54.80;;;;;;4959691;28;20473;-64
2024/03/05 11:37:07;;;;;;;27.93;26.63;;;20.90;54.80;;;;;;4960452;28;20574;-65
2024/03/05 11:39:35;;;;;;;28.60;27.20;;;20.90;54.80;;;;;;4959110;28;20492;-65
2024/03/05 11:42:03;;;;;;;30.00;28.50;;;20.90;54.70;;;;;;4958098;28;20535;-64
2024/03/05 11:44:52;;;;;;;29.53;28.10;;;20.90;54.70;;;;;;4958260;28;20471;-63
2024/03/05 11:47:20;;;;;;;28.53;27.13;;;20.90;54.70;;;;;;4958927;28;20809;-65
2024/03/05 11:49:49;;;;;;;28.03;26.73;;;20.90;54.70;;;;;;4959187;28;20441;-65
2024/03/05 11:52:18;;;;;;;27.70;26.43;;;20.90;54.70;;;;;;4959537;28;20448;-64
2024/03/05 11:54:45;;;;;;;27.67;26.23;;;20.90;54.70;;;;;;4956807;28;20484;-66
2024/03/05 11:57:14;;;;;;;27.47;26.10;;;20.90;55.20;;;;;;4958452;28;20441;-64
2024/03/05 11:59:41;;;;;;;29.37;27.77;;;20.90;54.60;;;;;;4956658;28;20607;-66
2024/03/05 12:02:10;;;;;;;27.63;26.27;;;20.90;54.50;;;;;;4955836;28;20453;-65
2024/03/05 12:04:37;;;;;;;28.27;26.87;;;20.90;54.50;;;;;;4955956;28;20472;-66
2024/03/05 12:07:07;;;;;;;27.57;26.37;;;20.90;54.50;;;;;;4955754;28;20823;-65
2024/03/05 12:09:37;;;;;;;28.20;26.90;;;20.90;54.50;;;;;;4955719;28;20472;-65
2024/03/05 12:12:06;;;;;;;29.40;27.90;;;20.90;54.60;;;;;;4955849;28;20988;-65
2024/03/05 12:14:34;;;;;;;29.43;28.03;;;20.90;54.60;;;;;;4955711;28;20481;-65
2024/03/05 12:17:06;;;;;;;27.80;26.50;;;20.90;54.60;;;;;;4955443;28;20495;-66
2024/03/05 12:19:34;;;;;;;29.00;27.53;;;20.90;54.60;;;;;;4955555;28;20448;-66
2024/03/05 12:22:01;;;;;;;27.67;26.37;;;20.90;55.20;;;;;;4955409;28;21017;-66
2024/03/05 12:24:30;;;;;;;27.53;26.23;;;20.90;54.60;;;;;;4956477;28;20480;-65
2024/03/05 12:26:58;;;;;;;28.07;26.57;;;20.90;54.60;;;;;;4955974;28;20452;-65
2024/03/05 12:29:29;;;;;;;26.80;25.60;;;20.90;54.60;;;;;;4955340;28;20810;-65
2024/03/05 12:31:57;;;;;;;26.73;25.53;;;20.90;54.60;;;;;;4955134;28;20457;-65
2024/03/05 12:34:23;;;;;;;28.20;26.80;;;20.90;54.60;;;;;;4956273;28;20475;-65
2024/03/05 12:36:51;;;;;;;28.57;27.07;;;20.90;54.60;;;;;;4956536;28;20539;-64